Terminal Aerodrome Forecast
Issued by NWS

Home | Current Version | Previous Version | Text Only | Print | Product List | Glossary Off
Versions: 1 2 3 4 5 6 7 8 9 10 11 12 13 14 15 16 17 18 19 20 21 22 23 24 25 26 27 28 29 30 31 32 33 34 35 36 37 38

000
FTUS43 KLOT 300300 AAC
TAFDPA
TAF AMD
KDPA 300305Z 3003/3024 04013KT P6SM OVC010
      TEMPO 3003/3007 6SM -RA BR OVC008
     FM300700 02012G17KT P6SM OVC008
     FM301000 03011KT 6SM BR SCT008 OVC009
     FM301400 35007KT P6SM BKN015
     FM302100 06009KT P6SM BKN018=

USA.gov is the U.S. government's official web portal to all federal, state and local government web resources and services.